Time;durP1;ratioP1;P1;durP2;ratioP2;P2;SDS_P1;SDS_P2;PMS_P1;PMS_P2;Temp;Humidity;BMP_temperature;BMP_pressure;BME280_temperature;BME280_humidity;BME280_pressure;Samples;Min_cycle;Max_cycle;Signal;HPM_P1;HPM_P2
2023/03/03 00:00:20;;;;;;;;;;;2.80;99.90;;;;;;5028289;28;19921;-56
2023/03/03 00:02:46;;;;;;;;;;;2.80;99.90;;;;;;5027925;28;20449;-53
2023/03/03 00:05:14;;;;;;;;;;;2.70;99.90;;;;;;5027602;28;19916;-56
2023/03/03 00:07:42;;;;;;;;;;;2.70;99.90;;;;;;5028100;28;20383;-55
2023/03/03 00:10:08;;;;;;;;;;;2.70;99.90;;;;;;5028914;28;19960;-56
2023/03/03 00:12:34;;;;;;;;;;;2.70;99.90;;;;;;5028988;28;19959;-55
2023/03/03 00:14:59;;;;;;;;;;;2.70;99.90;;;;;;5027990;28;19964;-54
2023/03/03 00:17:26;;;;;;;;;;;2.70;99.90;;;;;;5028303;28;19967;-57
2023/03/03 00:19:52;;;;;;;;;;;2.70;99.90;;;;;;5027932;28;19932;-57
2023/03/03 00:22:20;;;;;;;;;;;2.70;99.90;;;;;;5028595;28;20299;-55
2023/03/03 00:24:46;;;;;;;;;;;2.70;99.90;;;;;;5028900;28;19917;-55
2023/03/03 00:27:30;;;;;;;;;;;2.70;99.90;;;;;;5028578;28;20362;-55
2023/03/03 00:29:57;;;;;;;;;;;2.70;99.90;;;;;;5028932;28;19921;-54
2023/03/03 00:32:27;;;;;;;;;;;2.80;99.90;;;;;;5029336;28;19974;-55
2023/03/03 00:34:54;;;;;;;;;;;2.80;99.90;;;;;;5028912;28;19917;-54
2023/03/03 00:37:22;;;;;;;;;;;2.80;99.90;;;;;;5028522;28;19917;-55
2023/03/03 00:39:47;;;;;;;;;;;2.80;99.90;;;;;;5025068;28;19952;-56
2023/03/03 00:42:14;;;;;;;;;;;2.80;99.90;;;;;;5026978;28;19925;-56
2023/03/03 00:44:41;;;;;;;;;;;2.80;99.90;;;;;;5027097;28;19972;-55
2023/03/03 00:47:10;;;;;;;;;;;2.70;99.90;;;;;;5028060;28;19924;-56
2023/03/03 00:49:35;;;;;;;;;;;2.70;99.90;;;;;;5024890;28;19917;-56
2023/03/03 00:52:01;;;;;;;;;;;2.70;99.90;;;;;;5029273;28;19947;-55
2023/03/03 00:54:27;;;;;;;;;;;2.70;99.90;;;;;;5028296;28;19917;-56
2023/03/03 00:56:52;;;;;;;;;;;2.70;99.90;;;;;;5028382;28;20023;-57
2023/03/03 00:59:17;;;;;;;;;;;2.70;99.90;;;;;;5028580;28;19925;-57
2023/03/03 01:01:43;;;;;;;;;;;2.70;99.90;;;;;;5032574;28;19924;-56
2023/03/03 01:04:08;;;;;;;;;;;2.70;99.90;;;;;;5032511;28;20031;-55
2023/03/03 01:06:34;;;;;;;;;;;2.70;99.90;;;;;;5032305;28;19951;-52
2023/03/03 01:09:00;;;;;;;;;;;2.70;99.90;;;;;;5031441;28;19917;-54
2023/03/03 01:11:27;;;;;;;;;;;2.70;99.90;;;;;;5032198;28;20308;-55
2023/03/03 01:13:53;;;;;;;;;;;2.70;99.90;;;;;;5030024;28;20457;-56
2023/03/03 01:16:18;;;;;;;;;;;2.70;99.90;;;;;;5032228;28;19924;-54
2023/03/03 01:18:44;;;;;;;;;;;2.70;99.90;;;;;;5032285;28;19917;-56
2023/03/03 01:21:10;;;;;;;;;;;2.70;99.90;;;;;;5032730;28;19943;-55
2023/03/03 01:23:36;;;;;;;;;;;2.70;99.90;;;;;;5031870;28;19999;-55
2023/03/03 01:26:02;;;;;;;;;;;2.70;99.90;;;;;;5031159;28;20039;-56
2023/03/03 01:28:28;;;;;;;;;;;2.60;99.90;;;;;;5028275;28;19917;-57
2023/03/03 01:30:53;;;;;;;;;;;2.60;99.90;;;;;;5031579;28;19963;-56
2023/03/03 01:33:19;;;;;;;;;;;2.60;99.90;;;;;;5031511;28;20205;-56
2023/03/03 01:35:46;;;;;;;;;;;2.60;99.90;;;;;;5032912;28;20579;-53
2023/03/03 01:38:11;;;;;;;;;;;2.60;99.90;;;;;;5030516;28;19951;-55
2023/03/03 01:40:37;;;;;;;;;;;2.60;99.90;;;;;;5031360;28;20445;-55
2023/03/03 01:43:03;;;;;;;;;;;2.60;99.90;;;;;;5031948;28;19921;-54
2023/03/03 01:45:30;;;;;;;;;;;2.60;99.90;;;;;;5031761;28;20434;-57
2023/03/03 01:48:14;;;;;;;;;;;2.60;99.90;;;;;;5030670;28;19995;-53
2023/03/03 01:50:44;;;;;;;;;;;2.60;99.90;;;;;;5031322;28;19929;-53
2023/03/03 01:53:16;;;;;;;;;;;2.60;99.90;;;;;;5031132;28;19921;-53
2023/03/03 01:55:42;;;;;;;;;;;2.60;99.90;;;;;;5031822;28;19974;-54
2023/03/03 01:58:10;;;;;;;;;;;2.60;99.90;;;;;;5032205;28;19917;-54
2023/03/03 02:00:37;;;;;;;;;;;2.60;99.90;;;;;;5031009;28;19917;-53
2023/03/03 02:03:03;;;;;;;;;;;2.60;99.90;;;;;;5030651;28;19929;-56
2023/03/03 02:05:28;;;;;;;;;;;2.60;99.90;;;;;;5028074;28;19917;-55
2023/03/03 02:07:54;;;;;;;;;;;2.60;99.90;;;;;;5030146;28;19917;-57
2023/03/03 02:10:20;;;;;;;;;;;2.60;99.90;;;;;;5030469;28;19987;-55
2023/03/03 02:12:48;;;;;;;;;;;2.60;99.90;;;;;;5031070;28;20275;-57
2023/03/03 02:15:17;;;;;;;;;;;2.60;99.90;;;;;;5030929;28;19917;-55
2023/03/03 02:17:42;;;;;;;;;;;2.60;99.90;;;;;;5029959;28;19925;-55
2023/03/03 02:20:14;;;;;;;;;;;2.60;99.90;;;;;;5030962;28;19927;-54
2023/03/03 02:22:43;;;;;;;;;;;2.60;99.90;;;;;;5031069;28;19925;-55
2023/03/03 02:25:14;;;;;;;;;;;2.60;99.90;;;;;;5031117;28;19917;-56
2023/03/03 02:27:40;;;;;;;;;;;2.60;99.90;;;;;;5030104;28;19960;-55
2023/03/03 02:30:10;;;;;;;;;;;2.60;99.90;;;;;;5030665;28;19956;-53
2023/03/03 02:32:36;;;;;;;;;;;2.50;99.90;;;;;;5030406;28;19924;-53
2023/03/03 02:35:21;;;;;;;;;;;2.50;99.90;;;;;;5031523;28;19917;-57
2023/03/03 02:37:47;;;;;;;;;;;2.50;99.90;;;;;;5029129;28;19964;-57
2023/03/03 02:40:13;;;;;;;;;;;2.50;99.90;;;;;;5028056;28;20330;-56
2023/03/03 02:42:38;;;;;;;;;;;2.50;99.90;;;;;;5030415;28;20374;-52
2023/03/03 02:45:04;;;;;;;;;;;2.50;99.90;;;;;;5030297;28;19952;-53
2023/03/03 02:47:30;;;;;;;;;;;2.50;99.90;;;;;;5030414;28;19917;-57
2023/03/03 02:49:55;;;;;;;;;;;2.50;99.90;;;;;;5031246;28;19925;-56
2023/03/03 02:52:21;;;;;;;;;;;2.50;99.90;;;;;;5012695;28;20047;-55
2023/03/03 02:54:46;;;;;;;;;;;2.50;99.90;;;;;;5029695;28;19967;-53
2023/03/03 02:57:12;;;;;;;;;;;2.50;99.90;;;;;;5030438;28;19986;-58
2023/03/03 02:59:38;;;;;;;;;;;2.50;99.90;;;;;;5028228;28;19918;-55
2023/03/03 03:02:03;;;;;;;;;;;2.50;99.90;;;;;;5030584;28;19932;-56
2023/03/03 03:04:29;;;;;;;;;;;2.50;99.90;;;;;;5028609;28;20382;-57
2023/03/03 03:06:55;;;;;;;;;;;2.50;99.90;;;;;;5030361;28;19924;-55
2023/03/03 03:09:21;;;;;;;;;;;2.50;99.90;;;;;;5028962;28;19921;-56
2023/03/03 03:11:46;;;;;;;;;;;2.50;99.90;;;;;;5030199;28;19917;-56
2023/03/03 03:14:13;;;;;;;;;;;2.50;99.90;;;;;;5029417;28;19936;-57
2023/03/03 03:16:38;;;;;;;;;;;2.50;99.90;;;;;;5030049;28;19917;-55
2023/03/03 03:19:04;;;;;;;;;;;2.50;99.90;;;;;;5027717;28;20283;-53
2023/03/03 03:21:29;;;;;;;;;;;2.50;99.90;;;;;;5029471;28;19917;-56
2023/03/03 03:23:55;;;;;;;;;;;2.50;99.90;;;;;;5028971;28;19921;-57
2023/03/03 03:26:20;;;;;;;;;;;2.50;99.90;;;;;;5028562;28;19967;-56
2023/03/03 03:28:46;;;;;;;;;;;2.50;99.90;;;;;;5025534;28;19917;-55
2023/03/03 03:31:12;;;;;;;;;;;2.50;99.90;;;;;;5029685;28;19921;-53
2023/03/03 03:33:38;;;;;;;;;;;2.50;99.90;;;;;;5029669;28;19924;-56
2023/03/03 03:36:05;;;;;;;;;;;2.50;99.90;;;;;;5029585;28;20004;-55
2023/03/03 03:38:30;;;;;;;;;;;2.50;99.90;;;;;;5028416;28;20180;-55
2023/03/03 03:40:56;;;;;;;;;;;2.50;99.90;;;;;;5028836;28;19917;-54
2023/03/03 03:43:22;;;;;;;;;;;2.50;99.90;;;;;;5027508;28;19925;-57
2023/03/03 03:45:48;;;;;;;;;;;2.50;99.90;;;;;;5026172;28;19987;-55
2023/03/03 03:48:14;;;;;;;;;;;2.50;99.90;;;;;;5028455;28;19921;-55
2023/03/03 03:50:40;;;;;;;;;;;2.50;99.90;;;;;;5027220;28;19944;-54
2023/03/03 03:53:06;;;;;;;;;;;2.50;99.90;;;;;;5028954;28;19917;-56
2023/03/03 03:55:31;;;;;;;;;;;2.50;99.90;;;;;;5028908;28;19931;-54
2023/03/03 03:57:57;;;;;;;;;;;2.50;99.90;;;;;;5028059;28;20101;-56
2023/03/03 04:00:22;;;;;;;;;;;2.50;99.90;;;;;;5029255;28;19944;-56
2023/03/03 04:02:48;;;;;;;;;;;2.50;99.90;;;;;;5028882;28;20015;-55
2023/03/03 04:05:14;;;;;;;;;;;2.50;99.90;;;;;;5029276;28;20378;-54
2023/03/03 04:07:39;;;;;;;;;;;2.40;99.90;;;;;;5028095;28;20027;-55
2023/03/03 04:10:05;;;;;;;;;;;2.40;99.90;;;;;;5028916;28;19987;-53
2023/03/03 04:12:37;;;;;;;;;;;2.40;99.90;;;;;;5028313;28;19928;-55
2023/03/03 04:15:06;;;;;;;;;;;2.40;99.90;;;;;;5028655;28;19917;-54
2023/03/03 04:17:31;;;;;;;;;;;2.40;99.90;;;;;;5027541;28;19921;-53
2023/03/03 04:19:57;;;;;;;;;;;2.40;99.90;;;;;;5028678;28;19917;-52
2023/03/03 04:22:23;;;;;;;;;;;2.40;99.90;;;;;;5023946;28;19917;-56
2023/03/03 04:24:48;;;;;;;;;;;2.40;99.90;;;;;;5028720;28;19971;-57
2023/03/03 04:27:14;;;;;;;;;;;2.40;99.90;;;;;;5028022;28;20412;-56
2023/03/03 04:29:40;;;;;;;;;;;2.40;99.90;;;;;;5027678;28;20267;-55
2023/03/03 04:32:05;;;;;;;;;;;2.40;99.90;;;;;;5028170;28;19925;-56
2023/03/03 04:34:30;;;;;;;;;;;2.40;99.90;;;;;;5030836;28;19927;-57
2023/03/03 04:36:56;;;;;;;;;;;2.40;99.90;;;;;;5033241;28;19921;-55
2023/03/03 04:39:21;;;;;;;;;;;2.40;99.90;;;;;;5031074;28;20011;-57
2023/03/03 04:41:47;;;;;;;;;;;2.40;99.90;;;;;;5032705;28;19928;-56
2023/03/03 04:44:12;;;;;;;;;;;2.50;99.90;;;;;;5032993;28;20016;-54
2023/03/03 04:46:38;;;;;;;;;;;2.50;99.90;;;;;;5032657;28;19917;-56
2023/03/03 04:49:06;;;;;;;;;;;2.50;99.90;;;;;;5031765;28;19917;-55
2023/03/03 04:51:32;;;;;;;;;;;2.50;99.90;;;;;;5033400;28;19940;-55
2023/03/03 04:53:57;;;;;;;;;;;2.50;99.90;;;;;;5033001;28;20414;-57
2023/03/03 04:56:23;;;;;;;;;;;2.50;99.90;;;;;;5032609;28;20138;-53
2023/03/03 04:58:48;;;;;;;;;;;2.50;99.90;;;;;;5031958;28;19971;-55
2023/03/03 05:01:14;;;;;;;;;;;2.50;99.90;;;;;;5032294;28;20283;-56
2023/03/03 05:03:40;;;;;;;;;;;2.50;99.90;;;;;;5032698;28;19972;-55
2023/03/03 05:06:06;;;;;;;;;;;2.50;99.90;;;;;;5032451;28;19917;-58
2023/03/03 05:08:31;;;;;;;;;;;2.50;99.90;;;;;;5031245;28;19932;-57
2023/03/03 05:10:58;;;;;;;;;;;2.50;99.90;;;;;;5030728;28;19986;-54
2023/03/03 05:13:26;;;;;;;;;;;2.50;99.90;;;;;;5032190;28;19964;-56
2023/03/03 05:15:54;;;;;;;;;;;2.50;99.90;;;;;;5031375;28;19943;-52
2023/03/03 05:18:20;;;;;;;;;;;2.50;99.90;;;;;;5031137;28;19925;-56
2023/03/03 05:20:45;;;;;;;;;;;2.50;99.90;;;;;;5031679;28;19917;-54
2023/03/03 05:23:11;;;;;;;;;;;2.50;99.90;;;;;;5031699;28;20349;-54
2023/03/03 05:25:37;;;;;;;;;;;2.50;99.90;;;;;;5031827;28;19921;-57
2023/03/03 05:28:03;;;;;;;;;;;2.50;99.90;;;;;;5030207;28;20438;-57
2023/03/03 05:30:29;;;;;;;;;;;2.50;99.90;;;;;;5031601;28;19920;-56
2023/03/03 05:32:54;;;;;;;;;;;2.50;99.90;;;;;;5027529;28;19928;-56
2023/03/03 05:35:20;;;;;;;;;;;2.50;99.90;;;;;;5031867;28;20346;-55
2023/03/03 05:37:46;;;;;;;;;;;2.50;99.90;;;;;;5030544;28;19917;-57
2023/03/03 05:40:15;;;;;;;;;;;2.50;99.90;;;;;;5030942;28;19920;-55
2023/03/03 05:42:41;;;;;;;;;;;2.50;99.90;;;;;;5029497;28;20076;-54
2023/03/03 05:45:06;;;;;;;;;;;2.50;99.90;;;;;;5031077;28;20398;-53
2023/03/03 05:47:32;;;;;;;;;;;2.50;99.90;;;;;;5030628;28;19943;-57
2023/03/03 05:49:57;;;;;;;;;;;2.50;99.90;;;;;;5031328;28;19987;-53
2023/03/03 05:52:23;;;;;;;;;;;2.50;99.90;;;;;;5030075;28;19917;-56
2023/03/03 05:54:49;;;;;;;;;;;2.50;99.90;;;;;;5031398;28;19921;-56
2023/03/03 05:57:14;;;;;;;;;;;2.50;99.90;;;;;;5031485;28;20015;-56
2023/03/03 05:59:43;;;;;;;;;;;2.50;99.90;;;;;;5030149;28;20012;-55
2023/03/03 06:02:08;;;;;;;;;;;2.50;99.90;;;;;;5031340;28;19928;-57
2023/03/03 06:04:34;;;;;;;;;;;2.50;99.90;;;;;;5031661;28;20248;-54
2023/03/03 06:06:59;;;;;;;;;;;2.50;99.90;;;;;;5030823;28;19917;-54
2023/03/03 06:09:25;;;;;;;;;;;2.50;99.90;;;;;;5029936;28;20401;-57
2023/03/03 06:11:52;;;;;;;;;;;2.50;99.90;;;;;;5031350;28;19921;-53
2023/03/03 06:14:19;;;;;;;;;;;2.50;99.90;;;;;;5031325;28;19937;-58
2023/03/03 06:16:45;;;;;;;;;;;2.50;99.90;;;;;;5031062;28;20341;-53
2023/03/03 06:19:10;;;;;;;;;;;2.50;99.90;;;;;;5029695;28;19925;-56
2023/03/03 06:21:35;;;;;;;;;;;2.50;99.90;;;;;;5030416;28;19924;-57
2023/03/03 06:24:01;;;;;;;;;;;2.50;99.90;;;;;;5030899;28;20416;-55
2023/03/03 06:26:26;;;;;;;;;;;2.60;99.90;;;;;;5031027;28;19970;-54
2023/03/03 06:28:54;;;;;;;;;;;2.60;99.90;;;;;;5029858;28;20310;-56
2023/03/03 06:31:19;;;;;;;;;;;2.50;99.90;;;;;;5030772;28;20374;-54
2023/03/03 06:33:45;;;;;;;;;;;2.60;99.90;;;;;;5030952;28;19971;-57
2023/03/03 06:36:11;;;;;;;;;;;2.60;99.90;;;;;;5030551;28;19929;-55
2023/03/03 06:38:36;;;;;;;;;;;2.60;99.90;;;;;;5029958;28;20302;-58
2023/03/03 06:41:06;;;;;;;;;;;2.50;99.90;;;;;;5030839;28;19924;-55
2023/03/03 06:43:32;;;;;;;;;;;2.50;99.90;;;;;;5030632;28;19971;-54
2023/03/03 06:45:57;;;;;;;;;;;2.50;99.90;;;;;;5033540;28;20332;-56
2023/03/03 06:48:23;;;;;;;;;;;2.50;99.90;;;;;;5029782;28;19921;-57
2023/03/03 06:50:48;;;;;;;;;;;2.50;99.90;;;;;;5029446;28;20003;-54
2023/03/03 06:53:15;;;;;;;;;;;2.50;99.90;;;;;;5030716;28;20398;-53
2023/03/03 06:55:43;;;;;;;;;;;2.50;99.90;;;;;;5030373;28;19924;-54
2023/03/03 06:58:15;;;;;;;;;;;2.50;99.90;;;;;;5028737;28;19968;-54
2023/03/03 07:00:42;;;;;;;;;;;2.50;99.90;;;;;;5028139;28;19921;-56
2023/03/03 07:03:13;;;;;;;;;;;2.50;99.90;;;;;;5027337;28;20302;-56
2023/03/03 07:05:39;;;;;;;;;;;2.50;99.90;;;;;;5026791;28;19940;-56
2023/03/03 07:08:15;;;;;;;;;;;2.60;99.90;;;;;;5028328;28;20374;-53
2023/03/03 07:10:41;;;;;;;;;;;2.60;99.90;;;;;;5027198;28;19920;-55
2023/03/03 07:13:17;;;;;;;;;;;2.60;99.90;;;;;;5030212;28;19972;-54
2023/03/03 07:15:43;;;;;;;;;;;2.60;99.90;;;;;;5029600;28;19971;-57
2023/03/03 07:18:20;;;;;;;;;;;2.60;99.90;;;;;;5029471;28;20441;-56
2023/03/03 07:20:46;;;;;;;;;;;2.70;99.90;;;;;;5027868;28;19971;-56
2023/03/03 07:23:19;;;;;;;;;;;2.70;99.90;;;;;;5029452;28;19921;-55
2023/03/03 07:25:45;;;;;;;;;;;2.70;99.90;;;;;;5029256;28;20482;-55
2023/03/03 07:28:19;;;;;;;;;;;2.70;99.90;;;;;;5028229;28;20012;-55
2023/03/03 07:30:45;;;;;;;;;;;2.70;99.90;;;;;;5029229;28;19984;-57
2023/03/03 07:33:18;;;;;;;;;;;2.80;99.90;;;;;;5028875;28;19968;-55
2023/03/03 07:35:43;;;;;;;;;;;2.70;99.90;;;;;;5029145;28;19925;-55
2023/03/03 07:38:21;;;;;;;;;;;2.70;99.90;;;;;;5028069;28;19924;-55
2023/03/03 07:40:48;;;;;;;;;;;2.80;99.90;;;;;;5025471;28;19916;-57
2023/03/03 07:43:32;;;;;;;;;;;2.80;99.90;;;;;;5028953;28;19937;-56
2023/03/03 07:46:02;;;;;;;;;;;2.80;99.90;;;;;;5028825;28;20028;-54
2023/03/03 07:48:35;;;;;;;;;;;2.90;99.90;;;;;;5028115;28;20024;-57
2023/03/03 07:51:03;;;;;;;;;;;2.90;99.90;;;;;;5028939;28;19925;-56
2023/03/03 07:53:33;;;;;;;;;;;2.90;99.90;;;;;;5027353;28;19964;-56
2023/03/03 07:55:59;;;;;;;;;;;3.00;99.90;;;;;;5028852;28;19917;-56
2023/03/03 07:58:43;;;;;;;;;;;3.10;99.90;;;;;;5020226;28;20012;-57
2023/03/03 08:01:15;;;;;;;;;;;3.10;99.90;;;;;;5026122;28;20283;-57
2023/03/03 08:03:43;;;;;;;;;;;3.30;99.90;;;;;;5026058;28;20146;-56
2023/03/03 08:06:28;;;;;;;;;;;3.30;99.90;;;;;;5026861;28;19920;-55
2023/03/03 08:08:54;;;;;;;;;;;3.40;99.90;;;;;;5025101;28;20333;-56
2023/03/03 08:11:19;;;;;;;;;;;3.50;99.90;;;;;;5026119;28;19924;-56
2023/03/03 08:13:45;;;;;;;;;;;3.70;99.90;;;;;;5028108;28;20047;-57
2023/03/03 08:16:10;;;;;;;;;;;3.80;99.90;;;;;;5026297;28;19956;-54
2023/03/03 08:18:46;;;;;;;;;;;4.00;99.90;;;;;;5026803;28;19923;-54
2023/03/03 08:21:12;;;;;;;;;;;4.20;99.90;;;;;;5041412;28;19924;-55
2023/03/03 08:23:37;;;;;;;;;;;4.30;99.90;;;;;;5029222;28;19920;-57
2023/03/03 08:26:03;;;;;;;;;;;4.50;99.90;;;;;;5028133;28;19925;-55
2023/03/03 08:28:28;;;;;;;;;;;4.70;99.90;;;;;;5028107;28;19921;-55
2023/03/03 08:30:54;;;;;;;;;;;4.80;99.90;;;;;;5028302;28;19917;-56
2023/03/03 08:33:19;;;;;;;;;;;4.80;99.90;;;;;;5028769;28;19921;-57
2023/03/03 08:35:45;;;;;;;;;;;4.80;99.90;;;;;;5028912;28;19924;-57
2023/03/03 08:38:12;;;;;;;;;;;4.80;99.90;;;;;;5027702;28;19925;-53
2023/03/03 08:40:37;;;;;;;;;;;4.70;99.90;;;;;;5024904;28;19928;-55
2023/03/03 08:43:03;;;;;;;;;;;4.80;99.90;;;;;;5028567;28;19921;-56
2023/03/03 08:45:29;;;;;;;;;;;4.80;99.90;;;;;;5028383;28;19924;-54
2023/03/03 08:47:55;;;;;;;;;;;4.80;99.90;;;;;;5025113;28;19924;-55
2023/03/03 08:50:23;;;;;;;;;;;4.90;99.90;;;;;;5027942;28;19920;-55
2023/03/03 08:52:49;;;;;;;;;;;5.00;99.90;;;;;;5028172;28;20271;-57
2023/03/03 08:55:14;;;;;;;;;;;5.10;99.90;;;;;;5028481;28;19921;-57
2023/03/03 08:57:40;;;;;;;;;;;5.20;99.90;;;;;;5027695;28;19920;-56
2023/03/03 09:00:08;;;;;;;;;;;5.30;99.90;;;;;;5028008;28;19925;-58
2023/03/03 09:02:34;;;;;;;;;;;5.40;99.90;;;;;;5040760;28;19917;-57
2023/03/03 09:04:59;;;;;;;;;;;5.50;99.90;;;;;;5028660;28;19924;-54
2023/03/03 09:07:25;;;;;;;;;;;5.50;99.90;;;;;;5027393;28;20497;-55
2023/03/03 09:09:50;;;;;;;;;;;5.60;99.90;;;;;;5025477;28;20475;-57
2023/03/03 09:12:18;;;;;;;;;;;5.70;99.90;;;;;;5026085;28;19971;-56
2023/03/03 09:14:43;;;;;;;;;;;5.70;99.90;;;;;;5023929;28;19963;-56
2023/03/03 09:17:22;;;;;;;;;;;5.90;99.90;;;;;;5027671;28;19928;-54
2023/03/03 09:19:48;;;;;;;;;;;6.10;99.90;;;;;;5027984;28;19917;-56
2023/03/03 09:22:21;;;;;;;;;;;6.30;99.90;;;;;;5031658;28;19979;-57
2023/03/03 09:24:47;;;;;;;;;;;6.50;99.90;;;;;;5032264;28;19975;-57
2023/03/03 09:27:16;;;;;;;;;;;6.70;99.90;;;;;;5031925;28;19924;-56
2023/03/03 09:29:42;;;;;;;;;;;6.90;99.90;;;;;;5031247;28;20020;-55
2023/03/03 09:32:23;;;;;;;;;;;7.10;99.90;;;;;;5031675;28;20008;-58
2023/03/03 09:34:48;;;;;;;;;;;7.30;99.90;;;;;;5031516;28;20007;-57
2023/03/03 09:37:23;;;;;;;;;;;7.40;99.90;;;;;;5031062;28;20770;-56
2023/03/03 09:39:50;;;;;;;;;;;7.60;99.90;;;;;;5030685;28;20286;-58
2023/03/03 09:42:25;;;;;;;;;;;7.60;99.90;;;;;;5031302;28;19917;-57
2023/03/03 09:45:10;;;;;;;;;;;7.70;99.90;;;;;;5032158;28;19964;-58
2023/03/03 09:47:38;;;;;;;;;;;7.70;99.90;;;;;;5030328;28;20016;-55
2023/03/03 09:50:14;;;;;;;;;;;7.80;99.90;;;;;;5030750;28;19923;-56
2023/03/03 09:52:45;;;;;;;;;;;7.80;99.90;;;;;;5029261;28;19917;-56
2023/03/03 09:55:11;;;;;;;;;;;7.90;99.90;;;;;;5030437;28;20424;-57
2023/03/03 09:57:39;;;;;;;;;;;8.00;99.90;;;;;;5025410;28;19968;-56
2023/03/03 10:00:15;;;;;;;;;;;8.00;99.90;;;;;;5032960;28;19917;-57
2023/03/03 10:02:46;;;;;;;;;;;8.10;99.90;;;;;;5018718;28;19947;-58
2023/03/03 10:05:32;;;;;;;;;;;8.20;99.90;;;;;;5033691;28;19923;-58
2023/03/03 10:08:01;;;;;;;;;;;8.30;99.90;;;;;;5014224;28;20413;-58
2023/03/03 10:10:35;;;;;;;;;;;8.30;99.90;;;;;;5022846;28;20369;-57
2023/03/03 10:13:16;;;;;;;;;;;8.40;99.90;;;;;;5028656;28;20400;-57
2023/03/03 10:15:57;;;;;;;;;;;8.60;99.90;;;;;;5024815;28;19959;-57
2023/03/03 10:18:28;;;;;;;;;;;8.70;99.90;;;;;;5024191;28;19925;-57
2023/03/03 10:21:05;;;;;;;;;;;8.70;99.90;;;;;;5028882;28;19921;-58
2023/03/03 10:23:49;;;;;;;;;;;8.80;99.90;;;;;;5027213;28;19929;-57
2023/03/03 10:26:41;;;;;;;;;;;8.80;99.90;;;;;;5028193;28;20170;-58
2023/03/03 10:29:26;;;;;;;;;;;8.90;99.90;;;;;;5029003;28;19917;-57
2023/03/03 10:32:10;;;;;;;;;;;8.90;99.90;;;;;;5027526;28;19921;-57
2023/03/03 10:34:38;;;;;;;;;;;8.80;99.90;;;;;;5029279;28;19924;-57
2023/03/03 10:37:19;;;;;;;;;;;8.70;99.90;;;;;;5023546;28;19924;-57
2023/03/03 10:39:51;;;;;;;;;;;8.60;99.90;;;;;;5028924;28;20010;-58
2023/03/03 10:42:35;;;;;;;;;;;8.50;99.90;;;;;;5029120;28;20313;-57
2023/03/03 10:45:03;;;;;;;;;;;8.40;99.90;;;;;;5028828;28;19924;-55
2023/03/03 10:47:38;;;;;;;;;;;8.40;99.90;;;;;;5027887;28;19917;-57
2023/03/03 10:50:15;;;;;;;;;;;8.30;99.90;;;;;;5028743;28;19916;-57
2023/03/03 10:53:04;;;;;;;;;;;8.30;99.90;;;;;;5028814;28;20432;-57
2023/03/03 10:55:41;;;;;;;;;;;8.30;99.90;;;;;;5026242;28;20370;-58
2023/03/03 10:58:09;;;;;;;;;;;8.30;99.90;;;;;;5029555;28;19921;-56
2023/03/03 11:00:51;;;;;;;;;;;8.30;99.90;;;;;;5029909;28;19921;-58
2023/03/03 11:03:35;;;;;;;;;;;8.30;99.90;;;;;;5027377;28;20283;-57
2023/03/03 11:06:05;;;;;;;;;;;8.30;99.90;;;;;;5030314;28;19928;-57
2023/03/03 11:08:42;;;;;;;;;;;8.20;99.90;;;;;;5028589;28;19928;-57
2023/03/03 11:11:10;;;;;;;;;;;8.20;99.90;;;;;;5029373;28;19996;-55
2023/03/03 11:13:39;;;;;;;;;;;8.10;99.90;;;;;;5029953;28;19920;-55
2023/03/03 11:16:19;;;;;;;;;;;8.10;99.90;;;;;;5030556;28;19917;-57
2023/03/03 11:18:51;;;;;;;;;;;8.10;99.90;;;;;;5027961;28;19921;-57
2023/03/03 11:21:16;;;;;;;;;;;8.00;99.90;;;;;;5030531;28;19924;-54
2023/03/03 11:23:47;;;;;;;;;;;8.00;99.90;;;;;;5029532;28;19929;-57
2023/03/03 11:26:33;;;;;;;;;;;7.90;99.90;;;;;;5030082;28;19917;-57
2023/03/03 11:29:08;;;;;;;;;;;7.90;99.90;;;;;;5023444;28;19920;-57
2023/03/03 11:31:54;;;;;;;;;;;7.90;99.90;;;;;;5029565;28;19917;-56
2023/03/03 11:34:28;;;;;;;;;;;7.80;99.90;;;;;;5029166;28;19924;-58
2023/03/03 11:37:01;;;;;;;;;;;7.80;99.90;;;;;;5028083;28;19917;-58
2023/03/03 11:39:26;;;;;;;;;;;7.80;99.90;;;;;;5028360;28;20309;-58
2023/03/03 11:41:59;;;;;;;;;;;7.80;99.90;;;;;;5027915;28;19936;-56
2023/03/03 11:44:30;;;;;;;;;;;7.80;99.90;;;;;;5027556;28;20004;-57
2023/03/03 11:47:14;;;;;;;;;;;7.80;99.90;;;;;;5027673;28;20007;-56
2023/03/03 11:49:45;;;;;;;;;;;7.80;99.90;;;;;;5026917;28;19925;-57
2023/03/03 11:52:19;;;;;;;;;;;7.80;99.90;;;;;;5028714;28;20265;-56
2023/03/03 11:54:44;;;;;;;;;;;7.70;99.90;;;;;;5029479;28;19917;-57
2023/03/03 11:57:10;;;;;;;;;;;7.80;99.90;;;;;;5029290;28;20386;-56
2023/03/03 11:59:40;;;;;;;;;;;7.80;99.90;;;;;;5028440;28;19917;-57
2023/03/03 12:02:18;;;;;;;;;;;7.70;99.90;;;;;;5029197;28;19921;-55
2023/03/03 12:04:44;;;;;;;;;;;7.70;99.90;;;;;;5027743;28;19921;-57
2023/03/03 12:07:28;;;;;;;;;;;7.70;99.90;;;;;;5027812;28;19924;-58
2023/03/03 12:09:56;;;;;;;;;;;7.60;99.90;;;;;;5028655;28;19925;-56
2023/03/03 12:12:28;;;;;;;;;;;7.60;99.90;;;;;;5027410;28;19924;-57
2023/03/03 12:15:14;;;;;;;;;;;7.60;99.90;;;;;;5024889;28;20006;-57
2023/03/03 12:17:39;;;;;;;;;;;7.60;99.90;;;;;;5024671;28;19975;-57
2023/03/03 12:20:05;;;;;;;;;;;7.70;99.90;;;;;;5028722;28;19964;-57
2023/03/03 12:22:37;;;;;;;;;;;7.60;99.90;;;;;;5028372;28;19921;-58
2023/03/03 12:25:03;;;;;;;;;;;7.70;99.90;;;;;;5028283;28;19917;-57
2023/03/03 12:27:34;;;;;;;;;;;7.70;99.90;;;;;;5026035;28;20409;-57
2023/03/03 12:30:18;;;;;;;;;;;7.70;99.90;;;;;;5026835;28;20412;-57
2023/03/03 12:32:49;;;;;;;;;;;7.80;99.90;;;;;;5028214;28;20019;-57
2023/03/03 12:35:23;;;;;;;;;;;7.80;99.90;;;;;;5028176;28;19941;-57
2023/03/03 12:38:01;;;;;;;;;;;7.80;99.90;;;;;;5023830;28;19917;-57
2023/03/03 12:40:29;;;;;;;;;;;7.90;99.90;;;;;;5028705;28;19956;-58
2023/03/03 12:42:59;;;;;;;;;;;7.90;99.90;;;;;;5027481;28;20507;-57
2023/03/03 12:45:24;;;;;;;;;;;8.00;99.90;;;;;;5028916;28;20446;-56
2023/03/03 12:48:00;;;;;;;;;;;8.00;99.90;;;;;;5028127;28;20004;-57
2023/03/03 12:50:30;;;;;;;;;;;8.10;99.90;;;;;;5027640;28;19945;-58
2023/03/03 12:53:03;;;;;;;;;;;8.10;99.90;;;;;;5028943;28;19923;-56
2023/03/03 12:55:35;;;;;;;;;;;8.20;99.90;;;;;;5030382;28;19924;-58
2023/03/03 12:58:13;;;;;;;;;;;8.20;99.90;;;;;;5030381;28;20390;-56
2023/03/03 13:00:38;;;;;;;;;;;8.20;99.90;;;;;;5029883;28;19988;-58
2023/03/03 13:03:22;;;;;;;;;;;8.20;99.90;;;;;;5031902;28;19921;-58
2023/03/03 13:05:51;;;;;;;;;;;8.20;99.90;;;;;;5032277;28;19971;-58
2023/03/03 13:08:56;;;;;;;;;;;8.20;99.90;;;;;;5031662;28;19920;-59
2023/03/03 13:11:39;;;;;;;;;;;8.20;99.90;;;;;;5028925;28;19921;-59
2023/03/03 13:14:18;;;;;;;;;;;8.20;99.90;;;;;;5029724;28;20011;-58
2023/03/03 13:17:01;;;;;;;;;;;8.30;99.90;;;;;;5015028;28;19921;-58
2023/03/03 13:19:39;;;;;;;;;;;8.30;99.90;;;;;;5030211;28;20348;-59
2023/03/03 13:22:09;;;;;;;;;;;8.30;99.90;;;;;;5031227;28;19964;-58
2023/03/03 13:24:42;;;;;;;;;;;8.50;99.90;;;;;;5030304;28;20007;-57
2023/03/03 13:27:16;;;;;;;;;;;8.70;99.90;;;;;;5028373;28;19921;-59
2023/03/03 13:29:42;;;;;;;;;;;8.80;99.90;;;;;;5028905;28;19928;-59
2023/03/03 13:32:14;;;;;;;;;;;8.90;99.90;;;;;;5030486;28;19924;-59
2023/03/03 13:34:48;;;;;;;;;;;9.00;99.90;;;;;;5027161;28;19957;-59
2023/03/03 13:37:21;;;;;;;;;;;9.10;99.90;;;;;;5031845;28;20370;-58
2023/03/03 13:39:50;;;;;;;;;;;9.20;99.90;;;;;;5030138;28;19921;-59
2023/03/03 13:42:18;;;;;;;;;;;9.30;99.90;;;;;;5031206;28;20381;-59
2023/03/03 13:44:44;;;;;;;;;;;9.20;99.90;;;;;;5030979;28;19921;-59
2023/03/03 13:47:16;;;;;;;;;;;9.30;99.90;;;;;;5031468;28;20015;-59
2023/03/03 13:49:57;;;;;;;;;;;9.30;99.90;;;;;;5030621;28;19921;-59
2023/03/03 13:52:25;;;;;;;;;;;9.30;99.90;;;;;;5030203;28;20158;-59
2023/03/03 13:54:59;;;;;;;;;;;9.20;99.90;;;;;;5031388;28;19920;-59
2023/03/03 13:57:28;;;;;;;;;;;9.20;99.90;;;;;;5030704;28;19920;-59
2023/03/03 14:00:02;;;;;;;;;;;9.10;99.90;;;;;;5031189;28;19962;-60
2023/03/03 14:02:28;;;;;;;;;;;9.00;99.90;;;;;;5031115;28;19917;-57
2023/03/03 14:04:56;;;;;;;;;;;9.00;99.90;;;;;;5031360;28;19921;-60
2023/03/03 14:07:29;;;;;;;;;;;8.90;99.90;;;;;;5030532;28;19921;-59
2023/03/03 14:10:00;;;;;;;;;;;8.90;99.90;;;;;;5031300;28;19928;-59
2023/03/03 14:12:47;;;;;;;;;;;8.90;99.90;;;;;;5022848;28;19917;-58
2023/03/03 14:15:20;;;;;;;;;;;8.80;99.90;;;;;;5030521;28;19917;-58
2023/03/03 14:17:49;;;;;;;;;;;8.80;99.90;;;;;;5030079;28;19971;-60
2023/03/03 14:20:18;;;;;;;;;;;8.80;99.90;;;;;;5042552;28;19971;-60
2023/03/03 14:22:49;;;;;;;;;;;8.80;99.90;;;;;;5030468;28;19960;-60
2023/03/03 14:25:15;;;;;;;;;;;8.80;99.90;;;;;;5031098;28;20129;-59
2023/03/03 14:27:54;;;;;;;;;;;8.90;99.90;;;;;;5027089;28;20314;-58
2023/03/03 14:30:23;;;;;;;;;;;9.00;99.90;;;;;;5025617;28;20182;-59
2023/03/03 14:33:06;;;;;;;;;;;9.10;99.90;;;;;;5028976;28;19921;-57
2023/03/03 14:35:41;;;;;;;;;;;9.20;99.90;;;;;;5028099;28;20416;-56
2023/03/03 14:38:13;;;;;;;;;;;9.20;99.90;;;;;;5028972;28;19929;-57
2023/03/03 14:40:41;;;;;;;;;;;9.20;99.90;;;;;;5029396;28;19986;-55
2023/03/03 14:43:25;;;;;;;;;;;9.10;99.90;;;;;;5029210;28;19994;-56